Time;durP1;ratioP1;P1;durP2;ratioP2;P2;SDS_P1;SDS_P2;PMS_P1;PMS_P2;Temp;Humidity;BMP_temperature;BMP_pressure;BME280_temperature;BME280_humidity;BME280_pressure;Samples;Min_cycle;Max_cycle;Signal;HPM_P1;HPM_P2
2021/06/16 00:00:56;;;;;;;8.32;1.88;;;19.10;96.50;;;;;;5032834;28;20052;-76
2021/06/16 00:03:22;;;;;;;4.10;1.60;;;19.20;96.30;;;;;;5031466;28;20439;-76
2021/06/16 00:05:48;;;;;;;4.72;1.75;;;19.10;96.00;;;;;;5032781;28;20060;-76
2021/06/16 00:08:13;;;;;;;6.13;1.60;;;19.10;96.50;;;;;;5033059;28;20029;-76
2021/06/16 00:10:39;;;;;;;3.92;2.17;;;19.00;96.00;;;;;;5033019;28;20022;-76
2021/06/16 00:13:05;;;;;;;3.80;1.60;;;19.00;96.60;;;;;;5031473;28;20048;-76
2021/06/16 00:15:36;;;;;;;4.63;2.00;;;18.70;96.60;;;;;;5031466;28;20042;-76
2021/06/16 00:18:04;;;;;;;5.40;1.50;;;18.80;97.00;;;;;;5035076;28;20055;-76
2021/06/16 00:20:30;;;;;;;8.13;1.83;;;18.90;96.70;;;;;;5035081;28;20029;-76
2021/06/16 00:22:56;;;;;;;4.07;1.63;;;19.10;96.70;;;;;;5034945;28;20075;-76
2021/06/16 00:25:23;;;;;;;5.57;1.58;;;19.10;96.30;;;;;;5036213;28;20396;-76
2021/06/16 00:27:49;;;;;;;5.68;1.63;;;19.10;96.40;;;;;;5034901;28;20374;-76
2021/06/16 00:30:15;;;;;;;3.80;1.70;;;18.90;96.30;;;;;;5036106;28;20026;-76
2021/06/16 00:32:43;;;;;;;4.82;1.63;;;18.80;96.80;;;;;;5034784;28;20025;-76
2021/06/16 00:35:09;;;;;;;4.25;1.60;;;18.80;96.90;;;;;;5034467;28;20045;-76
2021/06/16 00:37:35;;;;;;;7.35;1.80;;;18.90;96.80;;;;;;5034641;28;20025;-76
2021/06/16 00:40:09;;;;;;;5.60;1.77;;;18.80;96.50;;;;;;5034693;28;20048;-76
2021/06/16 00:42:35;;;;;;;4.43;1.60;;;18.80;96.70;;;;;;5034829;28;20029;-76
2021/06/16 00:45:01;;;;;;;4.00;1.65;;;18.90;96.80;;;;;;5034524;28;20030;-76
2021/06/16 00:47:26;;;;;;;2.60;1.80;;;18.90;96.80;;;;;;5035770;28;20377;-76
2021/06/16 00:49:52;;;;;;;2.97;1.80;;;18.90;96.90;;;;;;5035760;28;20022;-76
2021/06/16 00:52:18;;;;;;;2.88;1.60;;;18.80;96.60;;;;;;5035722;28;20531;-76
2021/06/16 00:54:43;;;;;;;4.85;1.85;;;18.80;97.00;;;;;;5034381;28;20032;-76
2021/06/16 00:57:09;;;;;;;3.85;1.83;;;18.70;97.00;;;;;;5035873;28;20049;-76
2021/06/16 00:59:55;;;;;;;3.83;1.52;;;18.70;97.20;;;;;;5035573;28;20056;-76
2021/06/16 01:02:23;;;;;;;6.07;2.03;;;18.70;97.20;;;;;;5034223;28;20480;-76
2021/06/16 01:04:53;;;;;;;5.30;2.03;;;18.90;96.80;;;;;;5034164;28;20021;-76
2021/06/16 01:07:25;;;;;;;4.20;1.80;;;18.80;96.80;;;;;;5035715;28;20032;-76
2021/06/16 01:10:03;;;;;;;6.50;1.98;;;18.70;96.50;;;;;;5034117;28;20028;-76
2021/06/16 01:12:32;;;;;;;5.63;1.58;;;18.60;97.20;;;;;;5035329;28;20599;-76
2021/06/16 01:15:07;;;;;;;3.67;1.70;;;18.60;97.00;;;;;;5035291;28;20025;-76
2021/06/16 01:17:45;;;;;;;3.75;2.15;;;18.80;96.70;;;;;;5033926;28;20026;-76
2021/06/16 01:20:24;;;;;;;4.15;1.60;;;18.70;97.00;;;;;;5033881;28;20369;-76
2021/06/16 01:22:58;;;;;;;5.38;1.83;;;18.70;96.70;;;;;;5033727;28;20029;-76
2021/06/16 01:25:46;;;;;;;7.68;2.00;;;18.50;97.20;;;;;;5035427;28;20026;-76
2021/06/16 01:28:13;;;;;;;6.78;1.88;;;18.50;97.20;;;;;;5033385;28;20025;-76
2021/06/16 01:30:41;;;;;;;3.78;2.22;;;18.40;97.30;;;;;;5034480;28;20078;-76
2021/06/16 01:33:10;;;;;;;3.13;1.65;;;18.20;97.60;;;;;;5034918;28;20032;-76
2021/06/16 01:35:39;;;;;;;3.92;2.03;;;18.20;98.10;;;;;;5033469;28;20172;-77
2021/06/16 01:38:06;;;;;;;7.28;2.00;;;18.30;98.20;;;;;;5034865;28;20029;-76
2021/06/16 01:40:33;;;;;;;5.55;2.22;;;18.10;97.70;;;;;;5033573;28;20108;-76
2021/06/16 01:43:01;;;;;;;4.25;1.75;;;18.30;97.90;;;;;;5034707;28;20369;-76
2021/06/16 01:45:31;;;;;;;4.10;1.80;;;18.50;98.10;;;;;;5033424;28;20175;-76
2021/06/16 01:47:59;;;;;;;5.53;2.22;;;18.40;97.30;;;;;;5034682;28;20049;-76
2021/06/16 01:50:26;;;;;;;3.40;1.85;;;18.50;97.70;;;;;;5033366;28;20018;-76
2021/06/16 01:52:55;;;;;;;4.15;2.03;;;18.50;97.90;;;;;;5034597;28;20500;-76
2021/06/16 01:55:22;;;;;;;4.85;2.10;;;18.50;97.20;;;;;;5034483;28;20052;-76
2021/06/16 01:57:50;;;;;;;5.32;1.85;;;18.60;97.30;;;;;;5034463;28;20021;-76
2021/06/16 02:00:18;;;;;;;3.55;1.65;;;18.40;97.50;;;;;;5033157;28;20556;-76
2021/06/16 02:02:44;;;;;;;6.15;2.58;;;18.50;97.80;;;;;;5033056;28;20057;-76
2021/06/16 02:05:12;;;;;;;4.57;1.60;;;18.30;97.70;;;;;;5034303;28;20388;-76
2021/06/16 02:07:43;;;;;;;3.25;1.65;;;18.40;98.30;;;;;;5034283;28;20017;-76
2021/06/16 02:10:15;;;;;;;3.35;1.88;;;18.40;97.60;;;;;;5034242;28;20083;-76
2021/06/16 02:12:44;;;;;;;5.40;2.20;;;18.40;98.10;;;;;;5032905;28;20501;-76
2021/06/16 02:15:15;;;;;;;4.85;2.00;;;18.40;97.60;;;;;;5034118;28;20025;-76
2021/06/16 02:17:48;;;;;;;3.55;1.83;;;18.10;98.20;;;;;;5032878;28;20397;-76
2021/06/16 02:20:14;;;;;;;2.55;2.08;;;18.20;98.70;;;;;;5032783;28;20032;-76
2021/06/16 02:22:40;;;;;;;4.28;2.15;;;18.30;98.30;;;;;;5032687;28;20032;-76
2021/06/16 02:25:06;;;;;;;5.88;2.20;;;18.40;97.90;;;;;;5033941;28;20026;-76
2021/06/16 02:27:32;;;;;;;7.03;2.20;;;18.40;97.90;;;;;;5032642;28;20485;-76
2021/06/16 02:29:58;;;;;;;5.82;2.00;;;18.60;97.90;;;;;;5032596;28;20037;-76
2021/06/16 02:32:23;;;;;;;7.30;2.30;;;18.60;97.40;;;;;;5033826;28;20358;-76
2021/06/16 02:34:49;;;;;;;4.72;2.30;;;18.50;97.90;;;;;;5032261;28;20473;-76
2021/06/16 02:37:18;;;;;;;6.13;2.28;;;18.30;98.00;;;;;;5033802;28;20018;-76
2021/06/16 02:39:56;;;;;;;4.75;2.35;;;18.20;98.00;;;;;;5032306;28;20049;-76
2021/06/16 02:42:22;;;;;;;3.50;1.70;;;17.90;98.20;;;;;;5033624;28;20384;-76
2021/06/16 02:44:49;;;;;;;4.03;1.83;;;17.90;98.60;;;;;;5033690;28;20029;-76
2021/06/16 02:47:16;;;;;;;5.32;2.10;;;18.10;99.10;;;;;;5032339;28;20017;-76
2021/06/16 02:49:54;;;;;;;3.13;1.88;;;18.20;98.80;;;;;;5033565;28;20529;-76
2021/06/16 02:52:21;;;;;;;5.07;2.08;;;18.20;98.10;;;;;;5033811;28;20094;-76
2021/06/16 02:54:55;;;;;;;3.33;1.88;;;18.10;98.60;;;;;;5033825;28;20071;-76
2021/06/16 02:57:24;;;;;;;4.30;2.20;;;18.20;98.80;;;;;;5032180;28;20025;-76
2021/06/16 02:59:52;;;;;;;4.45;2.00;;;18.30;98.10;;;;;;5032171;28;20038;-76
2021/06/16 03:02:21;;;;;;;3.08;1.90;;;18.10;98.80;;;;;;5032074;28;20531;-76
2021/06/16 03:04:48;;;;;;;4.60;2.10;;;18.10;98.50;;;;;;5032113;28;20025;-77
2021/06/16 03:07:15;;;;;;;3.22;1.60;;;18.20;98.90;;;;;;5033593;28;20030;-76
2021/06/16 03:09:46;;;;;;;4.97;2.15;;;18.10;98.60;;;;;;5032033;28;20045;-76
2021/06/16 03:12:14;;;;;;;3.17;1.98;;;18.10;98.50;;;;;;5033528;28;20489;-76
2021/06/16 03:14:40;;;;;;;4.65;2.10;;;18.10;99.00;;;;;;5031955;28;20032;-76
2021/06/16 03:17:07;;;;;;;7.28;2.03;;;18.10;98.90;;;;;;5031998;28;20068;-76
2021/06/16 03:19:34;;;;;;;6.03;2.13;;;18.00;98.80;;;;;;5033458;28;20032;-76
2021/06/16 03:22:03;;;;;;;5.47;2.00;;;18.10;98.80;;;;;;5031866;28;20068;-76
2021/06/16 03:24:31;;;;;;;3.15;1.75;;;18.10;98.90;;;;;;5031770;28;20029;-76
2021/06/16 03:26:57;;;;;;;5.43;1.92;;;18.30;98.70;;;;;;5033181;28;20018;-76
2021/06/16 03:29:24;;;;;;;3.75;1.90;;;18.30;98.30;;;;;;5031877;28;20102;-76
2021/06/16 03:31:51;;;;;;;4.28;2.05;;;18.30;98.40;;;;;;5031868;28;20540;-76
2021/06/16 03:34:17;;;;;;;3.03;1.75;;;18.10;98.50;;;;;;5033043;28;20117;-76
2021/06/16 03:36:45;;;;;;;3.22;1.73;;;18.10;98.80;;;;;;5031689;28;20045;-76
2021/06/16 03:39:14;;;;;;;6.30;2.03;;;18.00;99.20;;;;;;5031748;28;20083;-76
2021/06/16 03:41:43;;;;;;;5.10;2.13;;;18.00;99.00;;;;;;5033018;28;20124;-76
2021/06/16 03:44:10;;;;;;;3.00;2.00;;;18.00;99.10;;;;;;5031639;28;20103;-76
2021/06/16 03:46:38;;;;;;;4.22;1.73;;;17.80;99.30;;;;;;5033221;28;20381;-76
2021/06/16 03:49:07;;;;;;;3.53;1.70;;;18.10;99.10;;;;;;5032235;28;20465;-77
2021/06/16 03:51:34;;;;;;;3.45;2.05;;;18.10;99.10;;;;;;5031613;28;20046;-76
2021/06/16 03:54:01;;;;;;;3.38;2.08;;;18.20;99.30;;;;;;5035454;28;20021;-76
2021/06/16 03:56:27;;;;;;;2.70;2.10;;;18.10;98.90;;;;;;5036751;28;20104;-76
2021/06/16 03:58:54;;;;;;;3.88;1.85;;;18.00;98.80;;;;;;5035681;28;20034;-76
2021/06/16 04:01:21;;;;;;;3.83;1.77;;;17.90;99.20;;;;;;5035413;28;20048;-76
2021/06/16 04:03:48;;;;;;;4.35;2.00;;;18.00;99.20;;;;;;5036760;28;20100;-76
2021/06/16 04:06:15;;;;;;;4.50;1.90;;;18.00;99.20;;;;;;5036573;28;20381;-76
2021/06/16 04:08:44;;;;;;;3.40;1.95;;;18.00;99.40;;;;;;5036765;28;20025;-76
2021/06/16 04:11:14;;;;;;;6.38;2.13;;;18.00;99.30;;;;;;5036406;28;20022;-76
2021/06/16 04:13:40;;;;;;;2.95;1.85;;;18.00;99.50;;;;;;5036382;28;20037;-76
2021/06/16 04:16:06;;;;;;;4.20;2.08;;;18.10;99.70;;;;;;5036163;28;20029;-76
2021/06/16 04:18:33;;;;;;;3.25;1.92;;;18.20;99.20;;;;;;5036211;28;20040;-76
2021/06/16 04:21:00;;;;;;;2.97;1.73;;;18.20;99.30;;;;;;5036629;28;20025;-76
2021/06/16 04:23:26;;;;;;;2.05;1.85;;;18.30;99.20;;;;;;5034839;28;20029;-76
2021/06/16 04:25:52;;;;;;;6.80;2.10;;;18.30;98.90;;;;;;5034850;28;20075;-76
2021/06/16 04:28:17;;;;;;;3.88;1.95;;;18.30;99.00;;;;;;5034826;28;20469;-76
2021/06/16 04:30:43;;;;;;;3.28;1.88;;;18.20;99.00;;;;;;5036138;28;20080;-76
2021/06/16 04:33:10;;;;;;;6.10;2.63;;;18.10;99.30;;;;;;5036072;28;20036;-76
2021/06/16 04:35:36;;;;;;;2.55;1.83;;;17.90;99.80;;;;;;5035761;28;20053;-76
2021/06/16 04:38:01;;;;;;;3.83;2.38;;;18.10;99.70;;;;;;5036139;28;20025;-76
2021/06/16 04:40:27;;;;;;;4.47;2.22;;;18.20;99.60;;;;;;5035952;28;20026;-76
2021/06/16 04:42:53;;;;;;;3.28;2.00;;;18.30;99.40;;;;;;5036103;28;20032;-76
2021/06/16 04:45:18;;;;;;;2.25;1.88;;;18.30;99.10;;;;;;5036384;28;20022;-76
2021/06/16 04:47:44;;;;;;;3.85;1.77;;;18.50;99.20;;;;;;5034548;28;20116;-76
2021/06/16 04:50:12;;;;;;;3.55;1.95;;;18.50;99.10;;;;;;5036035;28;20032;-76
2021/06/16 04:52:38;;;;;;;4.43;2.10;;;18.60;99.20;;;;;;5035716;28;20014;-76
2021/06/16 04:55:06;;;;;;;3.33;1.92;;;18.60;99.10;;;;;;5035690;28;20389;-76
2021/06/16 04:57:32;;;;;;;6.72;2.20;;;18.40;99.40;;;;;;5035684;28;20028;-77
2021/06/16 04:59:57;;;;;;;6.63;2.03;;;18.50;99.60;;;;;;5034123;28;20025;-76
2021/06/16 05:02:23;;;;;;;6.75;2.10;;;18.60;99.30;;;;;;5035410;28;20033;-76
2021/06/16 05:04:49;;;;;;;3.80;2.00;;;18.60;99.50;;;;;;5032850;28;20029;-76
2021/06/16 05:07:14;;;;;;;3.28;2.08;;;18.50;99.60;;;;;;5034159;28;20026;-76
2021/06/16 05:09:40;;;;;;;4.78;2.13;;;18.40;99.90;;;;;;5035395;28;20026;-76
2021/06/16 05:12:06;;;;;;;3.10;2.20;;;18.50;99.80;;;;;;5035265;28;20028;-76
2021/06/16 05:14:32;;;;;;;3.25;2.00;;;18.60;99.70;;;;;;5035540;28;20049;-76
2021/06/16 05:16:58;;;;;;;3.45;2.38;;;18.60;99.60;;;;;;5035311;28;20029;-76
2021/06/16 05:19:24;;;;;;;8.98;2.53;;;18.60;99.90;;;;;;5035177;28;20040;-77
2021/06/16 05:21:51;;;;;;;4.57;2.20;;;18.60;99.90;;;;;;5033918;28;20033;-76
2021/06/16 05:24:18;;;;;;;4.68;2.25;;;18.50;99.90;;;;;;5033862;28;20378;-76
2021/06/16 05:26:44;;;;;;;2.88;2.00;;;18.60;99.90;;;;;;5035098;28;20041;-76
2021/06/16 05:29:10;;;;;;;4.75;2.13;;;18.60;99.90;;;;;;5034985;28;20032;-77
2021/06/16 05:31:36;;;;;;;5.07;2.25;;;18.80;99.90;;;;;;5033748;28;20524;-76
2021/06/16 05:34:03;;;;;;;7.30;2.35;;;18.90;99.90;;;;;;5035131;28;20060;-77
2021/06/16 05:36:30;;;;;;;4.93;2.47;;;19.00;99.90;;;;;;5033584;28;20501;-76
2021/06/16 05:38:55;;;;;;;3.92;2.28;;;19.00;99.90;;;;;;5034758;28;20473;-76
2021/06/16 05:41:22;;;;;;;7.90;2.40;;;19.20;99.80;;;;;;5034852;28;20029;-76
2021/06/16 05:43:47;;;;;;;6.28;2.20;;;19.20;99.90;;;;;;5034778;28;20129;-76
2021/06/16 05:46:13;;;;;;;7.78;2.63;;;19.10;99.90;;;;;;5034724;28;20049;-77
2021/06/16 05:48:39;;;;;;;6.35;2.65;;;19.20;99.90;;;;;;5034940;28;20084;-76
2021/06/16 05:51:05;;;;;;;5.35;2.00;;;19.20;99.90;;;;;;5033342;28;20388;-76
2021/06/16 05:53:31;;;;;;;7.57;2.50;;;19.40;99.90;;;;;;5034864;28;20072;-76
2021/06/16 05:55:56;;;;;;;4.43;2.42;;;19.40;99.90;;;;;;5034524;28;20026;-76
2021/06/16 05:58:25;;;;;;;3.67;2.13;;;19.60;99.90;;;;;;5034512;28;20029;-76
2021/06/16 06:00:50;;;;;;;5.10;2.55;;;19.70;99.90;;;;;;5033447;28;20029;-77
2021/06/16 06:03:16;;;;;;;6.28;2.08;;;19.70;99.90;;;;;;5034652;28;20116;-77
2021/06/16 06:05:42;;;;;;;7.20;2.28;;;19.90;99.90;;;;;;5033140;28;20021;-76
2021/06/16 06:08:08;;;;;;;4.85;2.00;;;19.90;99.90;;;;;;5034545;28;20053;-76
2021/06/16 06:10:34;;;;;;;6.95;2.30;;;19.80;99.90;;;;;;5034251;28;20018;-76
2021/06/16 06:13:00;;;;;;;3.67;2.20;;;19.90;99.90;;;;;;5034716;28;20026;-76
2021/06/16 06:15:25;;;;;;;4.47;2.08;;;19.90;99.90;;;;;;5033807;28;20090;-77
2021/06/16 06:17:51;;;;;;;8.75;2.30;;;20.10;99.90;;;;;;5033525;28;20022;-76
2021/06/16 06:20:18;;;;;;;8.00;2.50;;;20.20;99.90;;;;;;5034085;28;20026;-76
2021/06/16 06:22:43;;;;;;;7.50;2.58;;;20.20;99.90;;;;;;5032682;28;20059;-76
2021/06/16 06:25:11;;;;;;;6.32;2.28;;;20.30;99.90;;;;;;5033987;28;20025;-76
2021/06/16 06:27:38;;;;;;;5.20;2.15;;;20.30;99.90;;;;;;5032660;28;20428;-76
2021/06/16 06:30:05;;;;;;;12.10;2.10;;;20.40;99.90;;;;;;5033855;28;20024;-76
2021/06/16 06:32:31;;;;;;;7.88;2.65;;;20.40;99.90;;;;;;5032554;28;20120;-76
2021/06/16 06:34:57;;;;;;;4.43;2.35;;;20.40;99.90;;;;;;5033566;28;20021;-77
2021/06/16 06:37:22;;;;;;;5.38;2.80;;;20.50;99.90;;;;;;5034089;28;20009;-77
2021/06/16 06:39:49;;;;;;;5.63;2.40;;;20.70;99.90;;;;;;5032454;28;20104;-77
2021/06/16 06:42:16;;;;;;;6.38;2.15;;;20.80;99.90;;;;;;5033713;28;20039;-77
2021/06/16 06:44:42;;;;;;;7.13;2.05;;;20.90;99.90;;;;;;5032320;28;20129;-78
2021/06/16 06:47:07;;;;;;;3.33;1.98;;;21.00;99.90;;;;;;5033903;28;20022;-77
2021/06/16 06:49:33;;;;;;;7.95;2.17;;;21.00;99.90;;;;;;5033565;28;20021;-77
2021/06/16 06:51:59;;;;;;;5.25;2.30;;;21.20;99.50;;;;;;5032308;28;20056;-77
2021/06/16 06:54:24;;;;;;;4.50;2.38;;;21.30;99.00;;;;;;5032282;28;20022;-77
2021/06/16 06:56:51;;;;;;;8.23;2.67;;;21.40;99.40;;;;;;5032270;28;20030;-77
2021/06/16 06:59:18;;;;;;;7.10;2.78;;;21.50;98.80;;;;;;5032259;28;20504;-77
2021/06/16 07:01:43;;;;;;;8.45;2.50;;;21.60;99.50;;;;;;5033409;28;20026;-77
2021/06/16 07:04:09;;;;;;;8.00;2.78;;;21.80;98.10;;;;;;5033358;28;20499;-77
2021/06/16 07:06:35;;;;;;;8.98;2.88;;;22.00;97.10;;;;;;5033947;28;20052;-77
2021/06/16 07:09:01;;;;;;;11.80;2.70;;;22.00;98.70;;;;;;5033906;28;20027;-77
2021/06/16 07:11:27;;;;;;;8.80;2.50;;;22.20;98.90;;;;;;5032096;28;20075;-77
2021/06/16 07:13:52;;;;;;;4.40;2.47;;;22.30;97.50;;;;;;5032068;28;20026;-77
2021/06/16 07:16:18;;;;;;;9.20;2.40;;;22.40;97.30;;;;;;5033268;28;20032;-77
2021/06/16 07:18:44;;;;;;;9.52;2.55;;;22.40;97.50;;;;;;5032012;28;20079;-77
2021/06/16 07:21:11;;;;;;;3.97;2.28;;;22.50;97.20;;;;;;5031962;28;20037;-78
2021/06/16 07:23:37;;;;;;;5.95;2.35;;;22.60;95.10;;;;;;5033189;28;20101;-77
2021/06/16 07:26:03;;;;;;;5.28;1.90;;;22.70;96.40;;;;;;5031944;28;20030;-77
2021/06/16 07:28:28;;;;;;;5.97;1.85;;;22.90;92.70;;;;;;5036351;28;20013;-78
2021/06/16 07:30:54;;;;;;;6.10;2.00;;;23.10;91.80;;;;;;5037333;28;20029;-78
2021/06/16 07:33:20;;;;;;;6.97;1.90;;;23.20;92.00;;;;;;5037228;28;20026;-78
2021/06/16 07:35:46;;;;;;;6.40;1.95;;;23.40;91.70;;;;;;5036960;28;20120;-77
2021/06/16 07:38:12;;;;;;;4.40;1.90;;;23.50;91.70;;;;;;5037422;28;20021;-78
2021/06/16 07:40:38;;;;;;;5.05;1.50;;;23.60;91.00;;;;;;5037106;28;20370;-78
2021/06/16 07:43:04;;;;;;;4.18;1.65;;;23.70;91.00;;;;;;5036941;28;20104;-78
2021/06/16 07:45:30;;;;;;;8.75;2.10;;;23.60;88.20;;;;;;5037278;28;20018;-78
2021/06/16 07:47:57;;;;;;;5.07;2.10;;;23.60;87.80;;;;;;5035889;28;20037;-77
2021/06/16 07:50:23;;;;;;;2.00;1.50;;;23.70;89.40;;;;;;5037211;28;20022;-77
2021/06/16 07:52:49;;;;;;;9.48;2.10;;;23.80;89.50;;;;;;5036902;28;20021;-78
2021/06/16 07:55:15;;;;;;;8.80;1.60;;;23.80;86.90;;;;;;5035565;28;20553;-77
2021/06/16 07:57:41;;;;;;;7.25;1.75;;;23.90;86.40;;;;;;5035492;28;20033;-77
2021/06/16 08:00:08;;;;;;;6.05;1.65;;;24.00;85.90;;;;;;5036742;28;20096;-78
2021/06/16 08:02:33;;;;;;;8.40;1.73;;;24.10;87.30;;;;;;5036628;28;20442;-78
2021/06/16 08:04:59;;;;;;;4.97;1.70;;;24.30;87.50;;;;;;5035432;28;20057;-78
2021/06/16 08:07:25;;;;;;;4.63;2.28;;;24.40;87.50;;;;;;5035366;28;20018;-78
2021/06/16 08:09:51;;;;;;;5.53;2.08;;;24.50;87.10;;;;;;5036848;28;20465;-78
2021/06/16 08:12:17;;;;;;;3.30;2.00;;;24.70;89.80;;;;;;5036519;28;20056;-77
2021/06/16 08:14:43;;;;;;;6.53;2.15;;;24.90;89.00;;;;;;5036749;28;20022;-77
2021/06/16 08:17:09;;;;;;;2.83;1.90;;;25.00;88.10;;;;;;5036380;28;20025;-78
2021/06/16 08:19:36;;;;;;;4.55;1.90;;;25.20;88.10;;;;;;5035141;28;20075;-78
2021/06/16 08:22:04;;;;;;;4.03;1.63;;;25.20;87.10;;;;;;5036328;28;20033;-77
2021/06/16 08:24:30;;;;;;;4.72;1.85;;;25.30;86.90;;;;;;5036456;28;20503;-77
2021/06/16 08:26:56;;;;;;;4.55;2.00;;;25.30;87.10;;;;;;5034984;28;20018;-77
2021/06/16 08:29:22;;;;;;;5.82;1.90;;;25.40;86.90;;;;;;5036159;28;20021;-77
2021/06/16 08:31:48;;;;;;;9.10;1.98;;;25.60;87.30;;;;;;5035082;28;20110;-77
2021/06/16 08:34:13;;;;;;;7.55;1.92;;;25.60;85.80;;;;;;5034725;28;20083;-77
2021/06/16 08:36:41;;;;;;;4.55;1.60;;;25.70;86.60;;;;;;5035875;28;20045;-77
2021/06/16 08:39:07;;;;;;;5.55;1.60;;;26.00;84.80;;;;;;5034387;28;20112;-77
2021/06/16 08:41:34;;;;;;;4.53;1.52;;;25.90;84.80;;;;;;5034708;28;20029;-77
2021/06/16 08:44:00;;;;;;;4.60;1.85;;;26.00;84.80;;;;;;5035821;28;20044;-78
2021/06/16 08:46:26;;;;;;;5.65;1.77;;;26.10;83.80;;;;;;5036157;28;20097;-77
2021/06/16 08:48:52;;;;;;;8.13;1.73;;;26.30;83.60;;;;;;5034512;28;20056;-78
2021/06/16 08:51:18;;;;;;;5.50;1.67;;;26.30;83.50;;;;;;5035776;28;20100;-78
2021/06/16 08:53:44;;;;;;;4.85;1.88;;;26.40;83.20;;;;;;5034474;28;20112;-77
2021/06/16 08:56:13;;;;;;;4.72;1.50;;;26.50;84.00;;;;;;5035996;28;20025;-78
2021/06/16 08:58:40;;;;;;;4.28;1.83;;;26.70;83.60;;;;;;5035642;28;20503;-78
2021/06/16 09:01:08;;;;;;;5.00;1.70;;;27.00;82.60;;;;;;5035565;28;20028;-78
2021/06/16 09:03:35;;;;;;;3.33;1.50;;;26.80;82.30;;;;;;5035434;28;20028;-78
2021/06/16 09:06:10;;;;;;;6.00;1.65;;;26.90;82.30;;;;;;5035749;28;20376;-78
2021/06/16 09:08:52;;;;;;;5.43;1.70;;;26.90;79.60;;;;;;5035781;28;20404;-77
2021/06/16 09:11:22;;;;;;;5.95;1.75;;;26.90;80.50;;;;;;5034071;28;20029;-78
2021/06/16 09:13:48;;;;;;;5.47;1.63;;;27.10;79.00;;;;;;5035313;28;20056;-78
2021/06/16 09:16:31;;;;;;;5.35;1.40;;;27.10;79.00;;;;;;5033910;28;20121;-78
2021/06/16 09:19:00;;;;;;;3.33;1.45;;;26.90;77.70;;;;;;5035293;28;20036;-78
2021/06/16 09:21:37;;;;;;;3.95;1.60;;;27.10;77.90;;;;;;5035249;28;20104;-78
2021/06/16 09:24:04;;;;;;;7.53;1.58;;;27.40;77.90;;;;;;5035070;28;20044;-78
2021/06/16 09:26:35;;;;;;;4.15;1.60;;;27.70;76.00;;;;;;5035137;28;20022;-79
2021/06/16 09:29:01;;;;;;;4.60;1.77;;;27.70;77.70;;;;;;5035166;28;20048;-78
2021/06/16 09:31:36;;;;;;;3.60;1.55;;;27.80;76.70;;;;;;5035038;28;20017;-78
2021/06/16 09:34:12;;;;;;;3.25;1.67;;;28.00;75.90;;;;;;5034894;28;20022;-78
2021/06/16 09:36:49;;;;;;;7.80;1.40;;;28.00;75.60;;;;;;5033550;28;20452;-78
2021/06/16 09:39:19;;;;;;;2.40;1.38;;;27.90;73.60;;;;;;5033679;28;20030;-78
2021/06/16 09:41:59;;;;;;;2.25;1.52;;;28.00;75.20;;;;;;5033568;28;20025;-78
2021/06/16 09:44:44;;;;;;;6.90;1.60;;;28.50;75.80;;;;;;5033484;28;20497;-78
2021/06/16 09:47:19;;;;;;;;;;;28.60;75.80;;;;;;5035206;28;20089;-78
2021/06/16 09:49:49;;;;;;;3.60;1.60;;;29.00;76.30;;;;;;5032812;28;19909;-78
2021/06/16 09:52:41;;;;;;;2.83;1.85;;;29.40;71.80;;;;;;5033344;28;20056;-78
2021/06/16 09:55:13;;;;;;;4.93;1.50;;;29.30;72.30;;;;;;5033278;28;20439;-77
2021/06/16 09:57:56;;;;;;;6.93;2.13;;;29.20;72.80;;;;;;5034559;28;20025;-79
2021/06/16 10:00:35;;;;;;;6.57;1.90;;;29.30;74.30;;;;;;5034892;28;20060;-78
2021/06/16 10:03:17;;;;;;;4.03;1.63;;;29.60;74.30;;;;;;5033255;28;20477;-78
2021/06/16 10:06:15;;;;;;;4.75;1.45;;;29.40;71.90;;;;;;5034369;28;20104;-79
2021/06/16 10:08:45;;;;;;;5.15;1.60;;;29.70;73.60;;;;;;5034036;28;20021;-79
2021/06/16 10:11:16;;;;;;;6.28;1.63;;;29.70;71.40;;;;;;5032992;28;20392;-78
2021/06/16 10:13:43;;;;;;;2.38;1.40;;;29.60;71.80;;;;;;5033085;28;20022;-78
2021/06/16 10:16:10;;;;;;;3.83;1.50;;;29.70;69.80;;;;;;5032933;28;20033;-79
2021/06/16 10:18:44;;;;;;;3.70;1.63;;;30.00;70.20;;;;;;5034152;28;20044;-79
2021/06/16 10:21:12;;;;;;;5.63;1.38;;;29.80;70.10;;;;;;5032845;28;20025;-78
2021/06/16 10:23:38;;;;;;;4.78;1.45;;;30.10;69.70;;;;;;5032813;28;20039;-78
2021/06/16 10:26:09;;;;;;;5.15;1.60;;;30.40;70.10;;;;;;5034057;28;20488;-78
2021/06/16 10:28:51;;;;;;;4.85;1.23;;;30.10;68.40;;;;;;5032798;28;20091;-79
2021/06/16 10:31:18;;;;;;;2.42;1.20;;;30.20;66.60;;;;;;5034096;28;20025;-79
2021/06/16 10:33:55;;;;;;;2.40;1.20;;;30.30;67.70;;;;;;5033918;28;20043;-78
2021/06/16 10:36:21;;;;;;;3.58;1.40;;;30.10;67.50;;;;;;5032451;28;20096;-78
2021/06/16 10:38:56;;;;;;;3.50;1.55;;;30.30;67.50;;;;;;5034166;28;20025;-77
2021/06/16 10:41:40;;;;;;;6.18;1.63;;;30.70;68.20;;;;;;5033823;28;20429;-78
2021/06/16 10:44:14;;;;;;;4.03;1.50;;;30.80;65.50;;;;;;5033685;28;20033;-78
2021/06/16 10:46:58;;;;;;;;;;;31.30;66.70;;;;;;5033130;28;20030;-79
2021/06/16 10:49:36;;;;;;;5.10;1.52;;;31.70;65.00;;;;;;5032464;28;20289;-78
2021/06/16 10:52:03;;;;;;;1.90;1.52;;;31.90;65.80;;;;;;5033871;28;20029;-79
2021/06/16 10:54:31;;;;;;;3.80;1.50;;;31.90;65.80;;;;;;5032366;28;20447;-78
2021/06/16 10:57:07;;;;;;;9.95;1.60;;;31.70;63.50;;;;;;5033582;28;20079;-78
2021/06/16 10:59:50;;;;;;;5.65;1.40;;;31.70;63.90;;;;;;5034100;28;20017;-78
2021/06/16 11:02:38;;;;;;;4.50;1.55;;;31.40;63.00;;;;;;5033460;28;20039;-79
2021/06/16 11:05:44;;;;;;;4.78;1.48;;;31.50;64.40;;;;;;5033350;28;20362;-78
2021/06/16 11:08:30;;;;;;;4.57;1.88;;;31.90;63.60;;;;;;5033797;28;20032;-79
2021/06/16 11:10:57;;;;;;;5.38;1.45;;;32.20;61.10;;;;;;5031945;28;20018;-78
2021/06/16 11:13:42;;;;;;;6.35;1.80;;;31.90;61.90;;;;;;5033380;28;20497;-78
2021/06/16 11:16:41;;;;;;;3.10;1.35;;;31.80;62.20;;;;;;5032172;28;20099;-79
2021/06/16 11:19:21;;;;;;;2.88;1.40;;;31.70;61.40;;;;;;5033149;28;20017;-79
2021/06/16 11:21:47;;;;;;;2.47;1.38;;;31.80;63.00;;;;;;5032369;28;20029;-78
2021/06/16 11:24:13;;;;;;;5.75;1.38;;;32.00;62.00;;;;;;5032053;28;20029;-79
2021/06/16 11:26:43;;;;;;;2.88;1.30;;;31.90;62.00;;;;;;5033270;28;20017;-78
2021/06/16 11:29:09;;;;;;;2.53;1.67;;;32.00;61.80;;;;;;5033192;28;20030;-79
2021/06/16 11:32:09;;;;;;;4.00;1.45;;;32.30;60.60;;;;;;5033189;28;20033;-79
2021/06/16 11:34:52;;;;;;;5.18;1.63;;;32.60;61.50;;;;;;5031807;28;20056;-78
2021/06/16 11:37:55;;;;;;;3.60;1.60;;;32.50;60.10;;;;;;5031934;28;20033;-79
2021/06/16 11:40:20;;;;;;;2.92;1.40;;;32.60;60.70;;;;;;5033090;28;20481;-79
2021/06/16 11:42:47;;;;;;;4.70;1.50;;;33.10;60.20;;;;;;5033008;28;20021;-79
2021/06/16 11:45:12;;;;;;;4.80;1.60;;;33.10;58.80;;;;;;5031735;28;20021;-79
2021/06/16 11:47:39;;;;;;;4.47;1.42;;;33.30;59.70;;;;;;5031861;28;20031;-79
2021/06/16 11:50:07;;;;;;;3.88;1.50;;;33.90;59.30;;;;;;5032989;28;20018;-79
2021/06/16 11:52:33;;;;;;;4.07;1.40;;;33.90;58.90;;;;;;5031724;28;20017;-79
2021/06/16 11:54:58;;;;;;;3.35;1.52;;;34.00;57.90;;;;;;5033251;28;20026;-79
2021/06/16 11:57:28;;;;;;;2.75;1.40;;;33.30;57.90;;;;;;5031641;28;20083;-78
2021/06/16 11:59:54;;;;;;;7.13;1.52;;;33.20;58.40;;;;;;5031630;28;20084;-79
2021/06/16 12:02:23;;;;;;;5.38;1.42;;;33.60;57.20;;;;;;5032897;28;20393;-78
2021/06/16 12:04:51;;;;;;;2.05;1.30;;;34.00;56.80;;;;;;5032802;28;20022;-79
2021/06/16 12:07:28;;;;;;;4.20;1.30;;;33.80;56.20;;;;;;5032911;28;20381;-79
2021/06/16 12:09:57;;;;;;;3.35;1.50;;;33.80;56.40;;;;;;5033129;28;20021;-79
2021/06/16 12:12:24;;;;;;;2.72;1.30;;;33.60;55.90;;;;;;5031547;28;20551;-79
2021/06/16 12:15:05;;;;;;;5.40;1.50;;;33.70;55.60;;;;;;5036194;28;20128;-79
2021/06/16 12:17:31;;;;;;;7.28;1.75;;;33.80;55.40;;;;;;5036529;28;20025;-79
2021/06/16 12:20:05;;;;;;;2.25;1.33;;;33.80;56.10;;;;;;5036458;28;20030;-79
2021/06/16 12:22:31;;;;;;;4.07;1.52;;;33.70;57.40;;;;;;5036652;28;20032;-79
2021/06/16 12:24:56;;;;;;;3.17;1.50;;;33.40;57.40;;;;;;5036515;28;20030;-79
2021/06/16 12:27:22;;;;;;;2.88;1.30;;;34.00;56.20;;;;;;5036299;28;20025;-79
2021/06/16 12:29:53;;;;;;;3.55;1.42;;;34.20;55.90;;;;;;5034927;28;20028;-79
2021/06/16 12:32:38;;;;;;;3.58;1.65;;;34.30;56.00;;;;;;5034982;28;20117;-79
2021/06/16 12:35:16;;;;;;;3.33;1.40;;;34.50;54.60;;;;;;5036388;28;20041;-79
2021/06/16 12:37:50;;;;;;;5.60;1.50;;;33.70;56.10;;;;;;5034791;28;20052;-79
2021/06/16 12:40:18;;;;;;;5.85;1.30;;;34.10;56.10;;;;;;5034803;28;20060;-79
2021/06/16 12:42:46;;;;;;;5.38;1.40;;;34.40;55.30;;;;;;5034636;28;20025;-79
2021/06/16 12:45:33;;;;;;;5.10;1.40;;;34.50;56.40;;;;;;5035989;28;20427;-79
2021/06/16 12:48:21;;;;;;;7.72;1.77;;;34.30;56.10;;;;;;5036066;28;20026;-79
2021/06/16 12:51:01;;;;;;;4.03;1.60;;;34.30;55.70;;;;;;5035947;28;20431;-79
2021/06/16 12:53:28;;;;;;;4.10;1.55;;;35.10;56.00;;;;;;5034637;28;20026;-79
2021/06/16 12:56:01;;;;;;;4.13;1.30;;;35.30;54.10;;;;;;5036017;28;20147;-79
2021/06/16 12:58:27;;;;;;;2.70;1.33;;;35.40;55.40;;;;;;5034516;28;20556;-79